sensor_id;sensor_type;location;lat;lon;timestamp;P1;durP1;ratioP1;P2;durP2;ratioP2
36137;SDS011;22194;50.046;21.954;2022-11-12T00:01:23;42.60;;;22.00;;
36137;SDS011;22194;50.046;21.954;2022-11-12T00:03:51;37.20;;;19.40;;
36137;SDS011;22194;50.046;21.954;2022-11-12T00:06:18;32.60;;;18.60;;
36137;SDS011;22194;50.046;21.954;2022-11-12T00:08:46;36.50;;;18.80;;
36137;SDS011;22194;50.046;21.954;2022-11-12T00:11:17;36.70;;;19.10;;
36137;SDS011;22194;50.046;21.954;2022-11-12T00:13:44;34.70;;;19.10;;
36137;SDS011;22194;50.046;21.954;2022-11-12T00:16:12;36.00;;;18.70;;
36137;SDS011;22194;50.046;21.954;2022-11-12T00:18:40;38.10;;;19.00;;
36137;SDS011;22194;50.046;21.954;2022-11-12T00:21:08;34.70;;;19.10;;
36137;SDS011;22194;50.046;21.954;2022-11-12T00:23:36;31.40;;;18.00;;
36137;SDS011;22194;50.046;21.954;2022-11-12T00:26:04;32.60;;;18.50;;
36137;SDS011;22194;50.046;21.954;2022-11-12T00:28:32;37.30;;;19.00;;
36137;SDS011;22194;50.046;21.954;2022-11-12T00:31:07;34.60;;;18.30;;
36137;SDS011;22194;50.046;21.954;2022-11-12T00:33:40;36.20;;;18.10;;
36137;SDS011;22194;50.046;21.954;2022-11-12T00:36:12;35.30;;;18.30;;
36137;SDS011;22194;50.046;21.954;2022-11-12T00:38:39;35.50;;;18.20;;
36137;SDS011;22194;50.046;21.954;2022-11-12T00:41:07;35.10;;;18.60;;
36137;SDS011;22194;50.046;21.954;2022-11-12T00:43:35;34.40;;;18.30;;
36137;SDS011;22194;50.046;21.954;2022-11-12T00:46:03;35.80;;;18.00;;
36137;SDS011;22194;50.046;21.954;2022-11-12T00:48:31;36.30;;;18.00;;
36137;SDS011;22194;50.046;21.954;2022-11-12T00:51:02;33.00;;;16.80;;
36137;SDS011;22194;50.046;21.954;2022-11-12T00:53:34;31.30;;;16.70;;
36137;SDS011;22194;50.046;21.954;2022-11-12T00:56:03;35.20;;;17.50;;
36137;SDS011;22194;50.046;21.954;2022-11-12T00:58:36;34.20;;;16.50;;
36137;SDS011;22194;50.046;21.954;2022-11-12T01:01:05;31.30;;;16.20;;
36137;SDS011;22194;50.046;21.954;2022-11-12T01:03:39;34.60;;;17.50;;
36137;SDS011;22194;50.046;21.954;2022-11-12T01:06:12;33.00;;;16.70;;
36137;SDS011;22194;50.046;21.954;2022-11-12T01:08:46;31.40;;;16.00;;
36137;SDS011;22194;50.046;21.954;2022-11-12T01:11:26;31.10;;;15.70;;
36137;SDS011;22194;50.046;21.954;2022-11-12T01:13:57;31.50;;;15.50;;
36137;SDS011;22194;50.046;21.954;2022-11-12T01:16:36;29.90;;;15.00;;
36137;SDS011;22194;50.046;21.954;2022-11-12T01:19:07;29.50;;;14.90;;
36137;SDS011;22194;50.046;21.954;2022-11-12T01:21:41;30.30;;;14.80;;
36137;SDS011;22194;50.046;21.954;2022-11-12T01:24:11;32.90;;;14.60;;
36137;SDS011;22194;50.046;21.954;2022-11-12T01:26:40;32.00;;;14.90;;
36137;SDS011;22194;50.046;21.954;2022-11-12T01:29:08;34.60;;;15.90;;
36137;SDS011;22194;50.046;21.954;2022-11-12T01:31:36;27.20;;;14.50;;
36137;SDS011;22194;50.046;21.954;2022-11-12T01:34:08;32.80;;;16.90;;
36137;SDS011;22194;50.046;21.954;2022-11-12T01:36:40;29.60;;;14.80;;
36137;SDS011;22194;50.046;21.954;2022-11-12T01:39:13;32.00;;;16.70;;
36137;SDS011;22194;50.046;21.954;2022-11-12T01:41:41;33.40;;;17.80;;
36137;SDS011;22194;50.046;21.954;2022-11-12T01:46:53;30.40;;;16.60;;
36137;SDS011;22194;50.046;21.954;2022-11-12T01:49:34;30.20;;;16.70;;
36137;SDS011;22194;50.046;21.954;2022-11-12T01:52:26;30.90;;;16.60;;
36137;SDS011;22194;50.046;21.954;2022-11-12T01:55:08;32.90;;;17.50;;
36137;SDS011;22194;50.046;21.954;2022-11-12T01:58:25;32.70;;;17.20;;
36137;SDS011;22194;50.046;21.954;2022-11-12T02:00:41;34.20;;;17.40;;
36137;SDS011;22194;50.046;21.954;2022-11-12T02:03:16;37.80;;;19.30;;
36137;SDS011;22194;50.046;21.954;2022-11-12T02:05:59;34.10;;;18.00;;
36137;SDS011;22194;50.046;21.954;2022-11-12T02:08:36;35.10;;;18.10;;
36137;SDS011;22194;50.046;21.954;2022-11-12T02:11:12;33.30;;;17.80;;
36137;SDS011;22194;50.046;21.954;2022-11-12T02:13:46;33.00;;;16.70;;
36137;SDS011;22194;50.046;21.954;2022-11-12T02:16:35;32.90;;;17.00;;
36137;SDS011;22194;50.046;21.954;2022-11-12T02:19:13;32.80;;;17.90;;
36137;SDS011;22194;50.046;21.954;2022-11-12T02:21:46;32.90;;;18.00;;
36137;SDS011;22194;50.046;21.954;2022-11-12T02:26:43;33.90;;;18.10;;
36137;SDS011;22194;50.046;21.954;2022-11-12T02:29:17;35.40;;;18.70;;
36137;SDS011;22194;50.046;21.954;2022-11-12T02:31:49;36.10;;;18.20;;
36137;SDS011;22194;50.046;21.954;2022-11-12T02:34:17;33.50;;;17.40;;
36137;SDS011;22194;50.046;21.954;2022-11-12T02:36:45;34.00;;;18.30;;
36137;SDS011;22194;50.046;21.954;2022-11-12T02:39:12;34.80;;;18.70;;
36137;SDS011;22194;50.046;21.954;2022-11-12T02:41:40;34.20;;;18.90;;
36137;SDS011;22194;50.046;21.954;2022-11-12T02:44:08;33.30;;;18.60;;
36137;SDS011;22194;50.046;21.954;2022-11-12T02:46:36;33.90;;;18.70;;
36137;SDS011;22194;50.046;21.954;2022-11-12T02:49:05;32.70;;;17.80;;
36137;SDS011;22194;50.046;21.954;2022-11-12T02:51:36;36.90;;;18.20;;
36137;SDS011;22194;50.046;21.954;2022-11-12T02:54:04;34.00;;;18.30;;
36137;SDS011;22194;50.046;21.954;2022-11-12T02:56:32;33.30;;;17.10;;
36137;SDS011;22194;50.046;21.954;2022-11-12T02:59:04;35.20;;;17.70;;
36137;SDS011;22194;50.046;21.954;2022-11-12T03:01:31;34.10;;;19.10;;
36137;SDS011;22194;50.046;21.954;2022-11-12T03:04:03;32.90;;;17.90;;
36137;SDS011;22194;50.046;21.954;2022-11-12T03:06:31;30.50;;;17.60;;
36137;SDS011;22194;50.046;21.954;2022-11-12T03:08:59;30.20;;;17.70;;
36137;SDS011;22194;50.046;21.954;2022-11-12T03:11:27;35.30;;;17.90;;
36137;SDS011;22194;50.046;21.954;2022-11-12T03:13:54;33.70;;;17.80;;
36137;SDS011;22194;50.046;21.954;2022-11-12T03:16:22;33.60;;;18.10;;
36137;SDS011;22194;50.046;21.954;2022-11-12T03:18:50;32.20;;;17.50;;
36137;SDS011;22194;50.046;21.954;2022-11-12T03:21:18;31.70;;;17.90;;
36137;SDS011;22194;50.046;21.954;2022-11-12T03:23:49;32.70;;;18.50;;
36137;SDS011;22194;50.046;21.954;2022-11-12T03:26:17;30.40;;;16.90;;
36137;SDS011;22194;50.046;21.954;2022-11-12T03:28:45;32.60;;;17.50;;
36137;SDS011;22194;50.046;21.954;2022-11-12T03:31:13;33.30;;;17.70;;
36137;SDS011;22194;50.046;21.954;2022-11-12T03:33:40;31.00;;;17.50;;
36137;SDS011;22194;50.046;21.954;2022-11-12T03:36:12;33.20;;;18.60;;
36137;SDS011;22194;50.046;21.954;2022-11-12T03:38:40;31.90;;;16.50;;
36137;SDS011;22194;50.046;21.954;2022-11-12T03:41:08;30.60;;;16.90;;
36137;SDS011;22194;50.046;21.954;2022-11-12T03:43:36;36.70;;;19.30;;
36137;SDS011;22194;50.046;21.954;2022-11-12T03:46:04;34.20;;;17.50;;
36137;SDS011;22194;50.046;21.954;2022-11-12T03:48:31;29.70;;;16.70;;
36137;SDS011;22194;50.046;21.954;2022-11-12T03:50:59;34.00;;;17.00;;
36137;SDS011;22194;50.046;21.954;2022-11-12T03:53:27;33.80;;;18.20;;
36137;SDS011;22194;50.046;21.954;2022-11-12T03:55:55;34.00;;;17.10;;
36137;SDS011;22194;50.046;21.954;2022-11-12T03:58:23;31.80;;;17.20;;
36137;SDS011;22194;50.046;21.954;2022-11-12T04:00:55;34.40;;;18.30;;
36137;SDS011;22194;50.046;21.954;2022-11-12T04:03:23;33.40;;;17.10;;
36137;SDS011;22194;50.046;21.954;2022-11-12T04:05:51;35.30;;;17.20;;
36137;SDS011;22194;50.046;21.954;2022-11-12T04:08:37;34.10;;;17.90;;
36137;SDS011;22194;50.046;21.954;2022-11-12T04:11:07;28.70;;;15.80;;
36137;SDS011;22194;50.046;21.954;2022-11-12T04:13:39;31.90;;;16.40;;
36137;SDS011;22194;50.046;21.954;2022-11-12T04:16:15;30.10;;;16.30;;
36137;SDS011;22194;50.046;21.954;2022-11-12T04:19:11;30.40;;;16.30;;
36137;SDS011;22194;50.046;21.954;2022-11-12T04:22:04;30.50;;;16.30;;
36137;SDS011;22194;50.046;21.954;2022-11-12T04:24:38;32.30;;;16.70;;
36137;SDS011;22194;50.046;21.954;2022-11-12T04:27:30;32.90;;;16.60;;
36137;SDS011;22194;50.046;21.954;2022-11-12T04:30:02;30.40;;;15.30;;
36137;SDS011;22194;50.046;21.954;2022-11-12T04:32:46;30.80;;;15.70;;
36137;SDS011;22194;50.046;21.954;2022-11-12T04:35:26;34.40;;;16.70;;
36137;SDS011;22194;50.046;21.954;2022-11-12T04:37:57;31.70;;;15.80;;
36137;SDS011;22194;50.046;21.954;2022-11-12T04:40:26;28.20;;;14.60;;
36137;SDS011;22194;50.046;21.954;2022-11-12T04:43:15;29.10;;;15.30;;
36137;SDS011;22194;50.046;21.954;2022-11-12T04:46:05;30.30;;;15.00;;
36137;SDS011;22194;50.046;21.954;2022-11-12T04:48:34;29.10;;;14.60;;
36137;SDS011;22194;50.046;21.954;2022-11-12T04:51:04;28.80;;;15.10;;
36137;SDS011;22194;50.046;21.954;2022-11-12T04:54:02;29.00;;;15.00;;
36137;SDS011;22194;50.046;21.954;2022-11-12T04:56:30;28.60;;;13.40;;
36137;SDS011;22194;50.046;21.954;2022-11-12T04:58:57;29.00;;;15.60;;
36137;SDS011;22194;50.046;21.954;2022-11-12T05:01:25;28.80;;;14.70;;
36137;SDS011;22194;50.046;21.954;2022-11-12T05:03:53;27.00;;;14.80;;
36137;SDS011;22194;50.046;21.954;2022-11-12T05:06:21;30.30;;;15.90;;
36137;SDS011;22194;50.046;21.954;2022-11-12T05:09:07;29.60;;;14.60;;
36137;SDS011;22194;50.046;21.954;2022-11-12T05:11:35;30.10;;;15.40;;
36137;SDS011;22194;50.046;21.954;2022-11-12T05:14:03;29.40;;;14.30;;
36137;SDS011;22194;50.046;21.954;2022-11-12T05:16:31;27.30;;;15.20;;
36137;SDS011;22194;50.046;21.954;2022-11-12T05:18:58;27.30;;;14.40;;
36137;SDS011;22194;50.046;21.954;2022-11-12T05:21:26;30.40;;;14.80;;
36137;SDS011;22194;50.046;21.954;2022-11-12T05:24:13;29.70;;;14.90;;
36137;SDS011;22194;50.046;21.954;2022-11-12T05:27:02;33.40;;;15.50;;
36137;SDS011;22194;50.046;21.954;2022-11-12T05:29:33;28.60;;;14.90;;
36137;SDS011;22194;50.046;21.954;2022-11-12T05:32:01;28.70;;;15.40;;
36137;SDS011;22194;50.046;21.954;2022-11-12T05:34:29;30.10;;;14.70;;
36137;SDS011;22194;50.046;21.954;2022-11-12T05:36:57;29.20;;;15.60;;
36137;SDS011;22194;50.046;21.954;2022-11-12T05:39:29;30.20;;;15.70;;
36137;SDS011;22194;50.046;21.954;2022-11-12T05:41:57;32.20;;;16.70;;
36137;SDS011;22194;50.046;21.954;2022-11-12T05:44:43;31.70;;;16.50;;
36137;SDS011;22194;50.046;21.954;2022-11-12T05:47:11;33.70;;;17.60;;
36137;SDS011;22194;50.046;21.954;2022-11-12T05:49:39;33.50;;;18.00;;
36137;SDS011;22194;50.046;21.954;2022-11-12T05:52:06;31.70;;;17.20;;
36137;SDS011;22194;50.046;21.954;2022-11-12T05:54:34;29.30;;;16.10;;
36137;SDS011;22194;50.046;21.954;2022-11-12T05:57:02;30.70;;;17.10;;
36137;SDS011;22194;50.046;21.954;2022-11-12T05:59:33;33.50;;;19.10;;
36137;SDS011;22194;50.046;21.954;2022-11-12T06:02:01;34.00;;;17.90;;
36137;SDS011;22194;50.046;21.954;2022-11-12T06:04:29;31.90;;;17.50;;
36137;SDS011;22194;50.046;21.954;2022-11-12T06:06:56;30.50;;;16.70;;
36137;SDS011;22194;50.046;21.954;2022-11-12T06:09:24;34.90;;;19.10;;
36137;SDS011;22194;50.046;21.954;2022-11-12T06:11:52;31.80;;;16.40;;
36137;SDS011;22194;50.046;21.954;2022-11-12T06:14:19;31.00;;;17.20;;
36137;SDS011;22194;50.046;21.954;2022-11-12T06:16:47;31.80;;;16.60;;
36137;SDS011;22194;50.046;21.954;2022-11-12T06:19:15;32.70;;;17.60;;
36137;SDS011;22194;50.046;21.954;2022-11-12T06:21:43;33.20;;;17.80;;
36137;SDS011;22194;50.046;21.954;2022-11-12T06:24:15;32.20;;;16.40;;
36137;SDS011;22194;50.046;21.954;2022-11-12T06:26:43;32.20;;;16.60;;
36137;SDS011;22194;50.046;21.954;2022-11-12T06:29:10;34.10;;;17.70;;
36137;SDS011;22194;50.046;21.954;2022-11-12T06:31:38;33.70;;;17.30;;
36137;SDS011;22194;50.046;21.954;2022-11-12T06:34:06;29.60;;;16.70;;
36137;SDS011;22194;50.046;21.954;2022-11-12T06:36:34;31.90;;;17.00;;
36137;SDS011;22194;50.046;21.954;2022-11-12T06:39:02;31.50;;;16.60;;
36137;SDS011;22194;50.046;21.954;2022-11-12T06:41:30;31.90;;;15.60;;
36137;SDS011;22194;50.046;21.954;2022-11-12T06:43:58;31.10;;;17.00;;
36137;SDS011;22194;50.046;21.954;2022-11-12T06:46:26;30.40;;;15.80;;
36137;SDS011;22194;50.046;21.954;2022-11-12T06:48:54;33.30;;;18.00;;
36137;SDS011;22194;50.046;21.954;2022-11-12T06:51:22;32.30;;;17.20;;
36137;SDS011;22194;50.046;21.954;2022-11-12T06:53:49;35.30;;;17.70;;
36137;SDS011;22194;50.046;21.954;2022-11-12T06:56:22;31.80;;;16.10;;
36137;SDS011;22194;50.046;21.954;2022-11-12T06:58:50;32.20;;;16.30;;
36137;SDS011;22194;50.046;21.954;2022-11-12T07:01:17;33.60;;;17.00;;
36137;SDS011;22194;50.046;21.954;2022-11-12T07:03:45;31.90;;;16.60;;
36137;SDS011;22194;50.046;21.954;2022-11-12T07:06:19;31.10;;;17.40;;
36137;SDS011;22194;50.046;21.954;2022-11-12T07:08:51;30.70;;;16.00;;
36137;SDS011;22194;50.046;21.954;2022-11-12T07:11:19;29.90;;;17.20;;
36137;SDS011;22194;50.046;21.954;2022-11-12T07:13:51;32.20;;;15.80;;
36137;SDS011;22194;50.046;21.954;2022-11-12T07:16:19;28.70;;;15.80;;
36137;SDS011;22194;50.046;21.954;2022-11-12T07:18:47;34.20;;;17.40;;
36137;SDS011;22194;50.046;21.954;2022-11-12T07:21:18;28.30;;;15.20;;
36137;SDS011;22194;50.046;21.954;2022-11-12T07:23:48;30.80;;;16.50;;
36137;SDS011;22194;50.046;21.954;2022-11-12T07:26:16;34.60;;;17.10;;
36137;SDS011;22194;50.046;21.954;2022-11-12T07:28:50;31.20;;;16.70;;
36137;SDS011;22194;50.046;21.954;2022-11-12T07:31:25;32.10;;;17.50;;
36137;SDS011;22194;50.046;21.954;2022-11-12T07:33:53;32.20;;;17.60;;
36137;SDS011;22194;50.046;21.954;2022-11-12T07:36:21;32.10;;;17.80;;
36137;SDS011;22194;50.046;21.954;2022-11-12T07:38:50;33.10;;;16.90;;
36137;SDS011;22194;50.046;21.954;2022-11-12T07:41:23;34.40;;;19.40;;
36137;SDS011;22194;50.046;21.954;2022-11-12T07:43:55;30.20;;;16.10;;
36137;SDS011;22194;50.046;21.954;2022-11-12T07:46:24;29.70;;;15.50;;
36137;SDS011;22194;50.046;21.954;2022-11-12T07:48:56;27.90;;;14.90;;
36137;SDS011;22194;50.046;21.954;2022-11-12T07:51:24;27.80;;;13.90;;
36137;SDS011;22194;50.046;21.954;2022-11-12T07:53:57;27.70;;;14.40;;
36137;SDS011;22194;50.046;21.954;2022-11-12T07:56:28;24.80;;;12.60;;
36137;SDS011;22194;50.046;21.954;2022-11-12T07:58:58;24.00;;;11.60;;
36137;SDS011;22194;50.046;21.954;2022-11-12T08:01:29;22.90;;;9.80;;
36137;SDS011;22194;50.046;21.954;2022-11-12T08:04:02;25.50;;;10.80;;
36137;SDS011;22194;50.046;21.954;2022-11-12T08:06:36;22.20;;;9.80;;
36137;SDS011;22194;50.046;21.954;2022-11-12T08:09:08;20.50;;;9.70;;
36137;SDS011;22194;50.046;21.954;2022-11-12T08:11:41;26.30;;;10.20;;
36137;SDS011;22194;50.046;21.954;2022-11-12T08:14:09;22.30;;;9.90;;
36137;SDS011;22194;50.046;21.954;2022-11-12T08:16:37;25.60;;;11.00;;
36137;SDS011;22194;50.046;21.954;2022-11-12T08:19:04;23.10;;;9.60;;
36137;SDS011;22194;50.046;21.954;2022-11-12T08:21:32;24.00;;;10.80;;
36137;SDS011;22194;50.046;21.954;2022-11-12T08:24:00;22.30;;;11.10;;
36137;SDS011;22194;50.046;21.954;2022-11-12T08:26:28;22.90;;;10.70;;
36137;SDS011;22194;50.046;21.954;2022-11-12T08:28:56;24.40;;;10.20;;
36137;SDS011;22194;50.046;21.954;2022-11-12T08:31:23;20.80;;;9.40;;
36137;SDS011;22194;50.046;21.954;2022-11-12T08:33:51;19.00;;;8.30;;
36137;SDS011;22194;50.046;21.954;2022-11-12T08:36:19;20.10;;;8.10;;
36137;SDS011;22194;50.046;21.954;2022-11-12T08:38:47;17.80;;;7.90;;
36137;SDS011;22194;50.046;21.954;2022-11-12T08:41:22;18.00;;;7.40;;
36137;SDS011;22194;50.046;21.954;2022-11-12T08:43:50;18.00;;;7.80;;
36137;SDS011;22194;50.046;21.954;2022-11-12T08:46:18;20.30;;;8.30;;
36137;SDS011;22194;50.046;21.954;2022-11-12T08:48:45;18.70;;;8.00;;
36137;SDS011;22194;50.046;21.954;2022-11-12T08:51:13;15.80;;;6.50;;
36137;SDS011;22194;50.046;21.954;2022-11-12T08:53:45;19.30;;;7.40;;
36137;SDS011;22194;50.046;21.954;2022-11-12T08:56:13;18.40;;;7.30;;
36137;SDS011;22194;50.046;21.954;2022-11-12T08:58:41;17.50;;;6.40;;
36137;SDS011;22194;50.046;21.954;2022-11-12T09:01:09;16.50;;;7.00;;
36137;SDS011;22194;50.046;21.954;2022-11-12T09:03:37;16.60;;;6.60;;
36137;SDS011;22194;50.046;21.954;2022-11-12T09:06:05;16.50;;;7.30;;
36137;SDS011;22194;50.046;21.954;2022-11-12T09:08:34;17.30;;;7.00;;
36137;SDS011;22194;50.046;21.954;2022-11-12T09:11:06;16.70;;;7.20;;
36137;SDS011;22194;50.046;21.954;2022-11-12T09:13:38;18.00;;;7.00;;
36137;SDS011;22194;50.046;21.954;2022-11-12T09:16:09;16.20;;;7.00;;
36137;SDS011;22194;50.046;21.954;2022-11-12T09:18:41;16.90;;;6.40;;
36137;SDS011;22194;50.046;21.954;2022-11-12T09:21:10;18.10;;;6.90;;
36137;SDS011;22194;50.046;21.954;2022-11-12T09:23:38;15.80;;;6.40;;
36137;SDS011;22194;50.046;21.954;2022-11-12T09:26:09;17.70;;;7.50;;
36137;SDS011;22194;50.046;21.954;2022-11-12T09:28:36;17.00;;;6.50;;
36137;SDS011;22194;50.046;21.954;2022-11-12T09:31:05;16.00;;;6.70;;
36137;SDS011;22194;50.046;21.954;2022-11-12T09:33:35;17.90;;;7.50;;
36137;SDS011;22194;50.046;21.954;2022-11-12T09:36:03;17.30;;;7.30;;
36137;SDS011;22194;50.046;21.954;2022-11-12T09:38:32;16.30;;;6.50;;
36137;SDS011;22194;50.046;21.954;2022-11-12T09:41:13;15.90;;;7.60;;
36137;SDS011;22194;50.046;21.954;2022-11-12T09:43:51;16.70;;;7.10;;
36137;SDS011;22194;50.046;21.954;2022-11-12T09:46:29;17.80;;;7.80;;
36137;SDS011;22194;50.046;21.954;2022-11-12T09:49:31;18.70;;;8.50;;
36137;SDS011;22194;50.046;21.954;2022-11-12T09:52:24;20.10;;;8.60;;
36137;SDS011;22194;50.046;21.954;2022-11-12T09:55:30;20.00;;;8.40;;
36137;SDS011;22194;50.046;21.954;2022-11-12T09:57:57;22.40;;;9.40;;
36137;SDS011;22194;50.046;21.954;2022-11-12T10:00:25;20.30;;;8.30;;
36137;SDS011;22194;50.046;21.954;2022-11-12T10:03:05;23.20;;;9.30;;
36137;SDS011;22194;50.046;21.954;2022-11-12T10:05:48;22.80;;;8.20;;
36137;SDS011;22194;50.046;21.954;2022-11-12T10:08:39;22.20;;;9.60;;
36137;SDS011;22194;50.046;21.954;2022-11-12T10:11:32;21.50;;;9.40;;
36137;SDS011;22194;50.046;21.954;2022-11-12T10:14:52;24.00;;;10.40;;
36137;SDS011;22194;50.046;21.954;2022-11-12T10:18:08;21.40;;;9.80;;
36137;SDS011;22194;50.046;21.954;2022-11-12T10:20:58;24.20;;;11.00;;
36137;SDS011;22194;50.046;21.954;2022-11-12T10:23:46;22.70;;;9.70;;
36137;SDS011;22194;50.046;21.954;2022-11-12T10:26:20;24.30;;;10.70;;
36137;SDS011;22194;50.046;21.954;2022-11-12T10:31:41;22.00;;;11.30;;
36137;SDS011;22194;50.046;21.954;2022-11-12T10:36:41;24.90;;;11.00;;
36137;SDS011;22194;50.046;21.954;2022-11-12T10:39:40;28.50;;;10.60;;
36137;SDS011;22194;50.046;21.954;2022-11-12T10:42:18;25.50;;;10.80;;
36137;SDS011;22194;50.046;21.954;2022-11-12T10:44:48;23.60;;;10.40;;
36137;SDS011;22194;50.046;21.954;2022-11-12T10:47:27;23.20;;;9.00;;
36137;SDS011;22194;50.046;21.954;2022-11-12T10:52:47;22.40;;;9.90;;
36137;SDS011;22194;50.046;21.954;2022-11-12T10:55:28;21.60;;;10.00;;
36137;SDS011;22194;50.046;21.954;2022-11-12T11:00:37;24.20;;;10.50;;
36137;SDS011;22194;50.046;21.954;2022-11-12T11:03:46;27.00;;;13.00;;
36137;SDS011;22194;50.046;21.954;2022-11-12T11:06:27;25.80;;;13.80;;
36137;SDS011;22194;50.046;21.954;2022-11-12T11:09:25;32.50;;;13.60;;
36137;SDS011;22194;50.046;21.954;2022-11-12T11:11:49;26.20;;;12.40;;
36137;SDS011;22194;50.046;21.954;2022-11-12T11:16:50;30.00;;;14.50;;
36137;SDS011;22194;50.046;21.954;2022-11-12T11:19:40;27.70;;;13.80;;
36137;SDS011;22194;50.046;21.954;2022-11-12T11:22:24;27.70;;;12.70;;
36137;SDS011;22194;50.046;21.954;2022-11-12T11:27:54;26.00;;;12.00;;
36137;SDS011;22194;50.046;21.954;2022-11-12T11:30:49;28.40;;;12.90;;
36137;SDS011;22194;50.046;21.954;2022-11-12T11:33:22;28.50;;;13.50;;
36137;SDS011;22194;50.046;21.954;2022-11-12T11:36:30;28.60;;;13.00;;
36137;SDS011;22194;50.046;21.954;2022-11-12T11:39:20;28.20;;;12.70;;
36137;SDS011;22194;50.046;21.954;2022-11-12T11:45:10;30.20;;;12.60;;
36137;SDS011;22194;50.046;21.954;2022-11-12T11:48:05;27.70;;;12.90;;
36137;SDS011;22194;50.046;21.954;2022-11-12T11:50:41;27.50;;;13.50;;
36137;SDS011;22194;50.046;21.954;2022-11-12T11:56:24;24.10;;;11.80;;
36137;SDS011;22194;50.046;21.954;2022-11-12T12:04:46;27.90;;;12.00;;
36137;SDS011;22194;50.046;21.954;2022-11-12T12:07:31;25.90;;;12.70;;
36137;SDS011;22194;50.046;21.954;2022-11-12T12:19:05;26.80;;;11.60;;
36137;SDS011;22194;50.046;21.954;2022-11-12T12:21:49;23.90;;;11.00;;
36137;SDS011;22194;50.046;21.954;2022-11-12T12:24:27;26.20;;;11.00;;
36137;SDS011;22194;50.046;21.954;2022-11-12T12:27:13;26.30;;;11.80;;
36137;SDS011;22194;50.046;21.954;2022-11-12T12:30:03;29.20;;;11.30;;
36137;SDS011;22194;50.046;21.954;2022-11-12T12:33:14;25.20;;;11.30;;
36137;SDS011;22194;50.046;21.954;2022-11-12T12:36:01;24.20;;;11.80;;
36137;SDS011;22194;50.046;21.954;2022-11-12T12:38:40;25.30;;;11.40;;
36137;SDS011;22194;50.046;21.954;2022-11-12T12:41:38;26.40;;;12.00;;
36137;SDS011;22194;50.046;21.954;2022-11-12T12:44:29;23.60;;;10.80;;
36137;SDS011;22194;50.046;21.954;2022-11-12T12:47:37;25.00;;;12.30;;
36137;SDS011;22194;50.046;21.954;2022-11-12T12:50:12;26.60;;;13.10;;
36137;SDS011;22194;50.046;21.954;2022-11-12T12:55:50;25.60;;;11.90;;
36137;SDS011;22194;50.046;21.954;2022-11-12T12:58:45;28.20;;;11.10;;
36137;SDS011;22194;50.046;21.954;2022-11-12T13:06:25;28.10;;;12.20;;
36137;SDS011;22194;50.046;21.954;2022-11-12T13:37:53;27.20;;;13.30;;
36137;SDS011;22194;50.046;21.954;2022-11-12T13:45:49;26.30;;;11.70;;
36137;SDS011;22194;50.046;21.954;2022-11-12T13:48:40;27.00;;;12.10;;
36137;SDS011;22194;50.046;21.954;2022-11-12T13:51:22;25.00;;;12.50;;
36137;SDS011;22194;50.046;21.954;2022-11-12T13:54:23;24.60;;;11.30;;
36137;SDS011;22194;50.046;21.954;2022-11-12T13:59:46;26.70;;;12.10;;
36137;SDS011;22194;50.046;21.954;2022-11-12T14:02:21;29.20;;;12.50;;
36137;SDS011;22194;50.046;21.954;2022-11-12T14:04:53;29.40;;;13.60;;
36137;SDS011;22194;50.046;21.954;2022-11-12T14:07:35;32.50;;;14.70;;
36137;SDS011;22194;50.046;21.954;2022-11-12T14:13:19;32.50;;;14.80;;
36137;SDS011;22194;50.046;21.954;2022-11-12T14:16:16;28.60;;;13.70;;
36137;SDS011;22194;50.046;21.954;2022-11-12T14:22:12;30.70;;;14.90;;
36137;SDS011;22194;50.046;21.954;2022-11-12T14:24:46;35.50;;;16.40;;
36137;SDS011;22194;50.046;21.954;2022-11-12T14:33:06;33.40;;;15.60;;
36137;SDS011;22194;50.046;21.954;2022-11-12T14:35:40;34.40;;;15.90;;
36137;SDS011;22194;50.046;21.954;2022-11-12T14:41:10;33.30;;;15.90;;
36137;SDS011;22194;50.046;21.954;2022-11-12T14:46:07;33.60;;;15.40;;
36137;SDS011;22194;50.046;21.954;2022-11-12T14:48:55;32.60;;;15.80;;
36137;SDS011;22194;50.046;21.954;2022-11-12T14:51:31;31.60;;;15.20;;
36137;SDS011;22194;50.046;21.954;2022-11-12T14:54:13;36.60;;;18.00;;
36137;SDS011;22194;50.046;21.954;2022-11-12T14:57:05;36.50;;;18.40;;
36137;SDS011;22194;50.046;21.954;2022-11-12T14:59:37;39.20;;;19.70;;
36137;SDS011;22194;50.046;21.954;2022-11-12T15:02:13;37.50;;;20.20;;
36137;SDS011;22194;50.046;21.954;2022-11-12T15:05:16;41.70;;;21.20;;
36137;SDS011;22194;50.046;21.954;2022-11-12T15:10:38;44.10;;;22.50;;
36137;SDS011;22194;50.046;21.954;2022-11-12T15:13:12;44.50;;;23.00;;
36137;SDS011;22194;50.046;21.954;2022-11-12T15:15:59;43.40;;;24.10;;
36137;SDS011;22194;50.046;21.954;2022-11-12T15:18:36;42.80;;;23.70;;
36137;SDS011;22194;50.046;21.954;2022-11-12T15:21:21;43.10;;;23.10;;
36137;SDS011;22194;50.046;21.954;2022-11-12T15:26:39;40.40;;;22.40;;
36137;SDS011;22194;50.046;21.954;2022-11-12T15:34:57;42.10;;;24.00;;
36137;SDS011;22194;50.046;21.954;2022-11-12T15:37:08;48.10;;;26.80;;
36137;SDS011;22194;50.046;21.954;2022-11-12T15:39:46;49.20;;;26.70;;
36137;SDS011;22194;50.046;21.954;2022-11-12T15:42:25;49.10;;;27.70;;
36137;SDS011;22194;50.046;21.954;2022-11-12T15:47:46;51.70;;;28.70;;
36137;SDS011;22194;50.046;21.954;2022-11-12T15:50:20;57.50;;;29.30;;
36137;SDS011;22194;50.046;21.954;2022-11-12T15:52:53;48.60;;;28.20;;
36137;SDS011;22194;50.046;21.954;2022-11-12T15:55:20;53.80;;;28.60;;
36137;SDS011;22194;50.046;21.954;2022-11-12T15:57:50;57.30;;;31.90;;
36137;SDS011;22194;50.046;21.954;2022-11-12T16:00:24;53.10;;;28.40;;
36137;SDS011;22194;50.046;21.954;2022-11-12T16:05:52;57.70;;;32.80;;
36137;SDS011;22194;50.046;21.954;2022-11-12T16:08:20;56.30;;;32.10;;
36137;SDS011;22194;50.046;21.954;2022-11-12T16:10:48;55.60;;;32.60;;
36137;SDS011;22194;50.046;21.954;2022-11-12T16:13:24;55.60;;;32.80;;
36137;SDS011;22194;50.046;21.954;2022-11-12T16:15:58;56.30;;;34.40;;
36137;SDS011;22194;50.046;21.954;2022-11-12T16:18:32;60.00;;;35.00;;
36137;SDS011;22194;50.046;21.954;2022-11-12T16:21:00;62.40;;;34.70;;
36137;SDS011;22194;50.046;21.954;2022-11-12T16:23:28;63.90;;;37.40;;
36137;SDS011;22194;50.046;21.954;2022-11-12T16:25:58;65.50;;;37.90;;
36137;SDS011;22194;50.046;21.954;2022-11-12T16:30:59;61.90;;;35.90;;
36137;SDS011;22194;50.046;21.954;2022-11-12T16:33:33;68.00;;;38.40;;
36137;SDS011;22194;50.046;21.954;2022-11-12T16:36:01;63.70;;;38.40;;
36137;SDS011;22194;50.046;21.954;2022-11-12T16:38:28;66.80;;;38.50;;
36137;SDS011;22194;50.046;21.954;2022-11-12T16:40:56;60.90;;;36.00;;
36137;SDS011;22194;50.046;21.954;2022-11-12T16:43:24;58.10;;;35.00;;
36137;SDS011;22194;50.046;21.954;2022-11-12T16:45:54;65.30;;;36.90;;
36137;SDS011;22194;50.046;21.954;2022-11-12T16:48:23;59.20;;;35.70;;
36137;SDS011;22194;50.046;21.954;2022-11-12T16:50:57;61.10;;;37.50;;
36137;SDS011;22194;50.046;21.954;2022-11-12T16:55:58;62.20;;;34.70;;
36137;SDS011;22194;50.046;21.954;2022-11-12T16:58:26;56.00;;;34.60;;